gordon.dewis.ca - Random musings from Gordon

Subscribe

Driving Tuesday morning

December 17, 2012 @ 23:45 By: gordon Category: Weather

It looks like tomorrow morning is going to be chaotic, and of course I have to be downtown in the Market really early:

TAF CYOW 180238Z 1803/1824 07008KT 2SM BR OVC003 TEMPO 1803/1805 6SM -FZDZ BR OVC006
FM180500 08008KT 2SM BR OVC003 TEMPO 1805/1808 6SM -DZ BR OVC006
FM180800 07012KT 1SM -SNRA BR OVC003 TEMPO 1808/1812 5SM -RA BR OVC006 PROB30 1808/1812 4SM -FZRA BR
FM181200 06012KT 1/2SM SN VV002
FM182000 34010KT 2SM -SN OVC012
RMK NXT FCST BY 180600Z=

Basically, it looks like there’s going to be freezing drizzle, snow showers and possibly freezing rain, all before 7am, and then snow carrying on then until tomorrow evening.

Driving to the Market at 7am is gonna be a blast.

Leave a Reply

CAPTCHA
*